Terminal Aerodrome Forecast
Issued by NWS

Home | Current Version | Previous Version | Text Only | Print | Product List | Glossary On
Versions: 1 2 3 4 5 6 7 8 9 10 11 12 13 14 15 16 17 18 19 20 21 22 23 24 25 26 27 28 29 30 31 32 33 34 35 36 37 38
000
FTUS43 KGLD 242320
TAFMCK
TAF
KMCK 242320Z 2500/2524 12011KT P6SM BKN040
     FM250600 13008KT P6SM -TSRA BKN007CB
     FM250900 07007KT P6SM VCTS BKN007CB
     FM251200 05005KT P6SM BKN007
     FM251400 35007KT P6SM BKN012
     FM251700 33008KT P6SM FEW020
     FM252000 28006KT P6SM FEW040=

USA.gov is the U.S. government's official web portal to all federal, state and local government web resources and services.